Time;durP1;ratioP1;P1;durP2;ratioP2;P2;SDS_P1;SDS_P2;PMS_P1;PMS_P2;Temp;Humidity;BMP_temperature;BMP_pressure;BME280_temperature;BME280_humidity;BME280_pressure;Samples;Min_cycle;Max_cycle;Signal;HPM_P1;HPM_P2
2023/10/16 00:02:22;;;;;;;7.47;3.47;;;;;;;5.25;100.00;101870.72;5056531;28;20069;-63
2023/10/16 00:04:49;;;;;;;4.60;2.70;;;;;;;5.20;100.00;101872.28;5055814;28;20040;-63
2023/10/16 00:07:20;;;;;;;4.22;2.65;;;;;;;5.18;100.00;101868.81;5061072;28;20079;-63
2023/10/16 00:09:46;;;;;;;4.68;2.63;;;;;;;5.16;100.00;101868.75;5058203;28;20037;-63
2023/10/16 00:12:12;;;;;;;7.43;3.70;;;;;;;5.10;100.00;101865.16;5060754;28;20032;-63
2023/10/16 00:14:37;;;;;;;7.10;3.47;;;;;;;5.06;100.00;101866.75;5060056;28;20032;-63
2023/10/16 00:17:08;;;;;;;7.43;3.70;;;;;;;4.95;100.00;101862.09;5058948;28;20040;-63
2023/10/16 00:19:37;;;;;;;6.82;3.22;;;;;;;4.89;100.00;101864.47;5053419;28;20041;-63
2023/10/16 00:22:03;;;;;;;8.05;3.97;;;;;;;4.85;100.00;101865.19;5053428;28;20047;-63
2023/10/16 00:24:28;;;;;;;9.15;3.63;;;;;;;4.83;100.00;101861.72;5061914;28;20036;-63
2023/10/16 00:26:54;;;;;;;5.20;3.58;;;;;;;4.80;100.00;101853.91;5055814;28;20147;-63
2023/10/16 00:29:23;;;;;;;4.05;3.08;;;;;;;4.80;100.00;101859.03;5055445;28;20541;-63
2023/10/16 00:31:51;;;;;;;7.03;3.22;;;;;;;4.75;100.00;101861.44;5060351;28;20032;-63
2023/10/16 00:34:21;;;;;;;11.40;4.53;;;;;;;4.68;100.00;101868.03;5061210;28;20036;-62
2023/10/16 00:36:55;;;;;;;8.63;3.70;;;;;;;4.63;100.00;101869.59;5057664;28;20040;-63
2023/10/16 00:39:25;;;;;;;9.73;4.00;;;;;;;4.62;100.00;101874.69;5052951;28;20099;-63
2023/10/16 00:41:50;;;;;;;5.00;3.70;;;;;;;4.63;100.00;101874.72;5055926;28;20024;-63
2023/10/16 00:44:18;;;;;;;5.65;3.50;;;;;;;4.62;100.00;101861.88;5034911;28;20032;-63
2023/10/16 00:46:48;;;;;;;6.47;3.22;;;;;;;4.62;100.00;101870.44;5054378;28;21946;-63
2023/10/16 00:49:14;;;;;;;6.05;3.50;;;;;;;4.62;100.00;101872.13;5056740;28;20036;-63
2023/10/16 00:51:41;;;;;;;7.43;4.22;;;;;;;4.61;100.00;101870.38;5057284;28;20032;-63
2023/10/16 00:54:28;;;;;;;6.85;3.33;;;;;;;4.60;100.00;101873.75;5054716;28;20158;-61
2023/10/16 00:57:07;;;;;;;8.55;3.67;;;;;;;4.60;100.00;101866.94;5038468;28;20663;-61
2023/10/16 00:59:35;;;;;;;8.10;3.55;;;;;;;4.60;100.00;101866.94;5037168;28;20124;-61
2023/10/16 01:02:17;;;;;;;9.07;3.72;;;;;;;4.61;100.00;101870.38;5037646;28;20135;-61
2023/10/16 01:04:43;;;;;;;4.22;2.97;;;;;;;4.60;100.00;101864.38;5033557;28;20774;-61
2023/10/16 01:07:09;;;;;;;7.32;3.10;;;;;;;4.60;100.00;101858.38;5040913;28;20040;-61
2023/10/16 01:09:35;;;;;;;7.07;4.15;;;;;;;4.61;100.00;101866.13;5057988;28;20874;-62
2023/10/16 01:12:07;;;;;;;5.95;3.63;;;;;;;4.61;100.00;101855.00;5059901;28;20171;-62
2023/10/16 01:14:35;;;;;;;8.80;3.92;;;;;;;4.58;100.00;101860.91;5059660;28;20178;-61
2023/10/16 01:17:01;;;;;;;5.60;3.08;;;;;;;4.55;100.00;101862.47;5059129;28;20244;-61
2023/10/16 01:19:28;;;;;;;5.93;3.95;;;;;;;4.53;100.00;101857.34;5054960;28;20132;-61
2023/10/16 01:21:54;;;;;;;4.75;3.05;;;;;;;4.52;100.00;101857.25;5056550;28;20070;-61
2023/10/16 01:24:21;;;;;;;6.65;3.63;;;;;;;4.49;100.00;101852.91;5052817;28;20479;-61
2023/10/16 01:26:47;;;;;;;7.25;3.53;;;;;;;4.46;100.00;101860.50;5035514;28;20091;-61
2023/10/16 01:29:15;;;;;;;5.57;3.50;;;;;;;4.44;100.00;101863.81;5035180;28;20310;-62
2023/10/16 01:31:44;;;;;;;9.18;4.18;;;;;;;4.43;100.00;101859.50;5049878;28;20037;-61
2023/10/16 01:34:12;;;;;;;5.57;3.08;;;;;;;4.41;100.00;101863.72;5056041;28;20041;-61
2023/10/16 01:36:45;;;;;;;9.07;3.42;;;;;;;4.39;100.00;101855.97;5050291;28;20040;-61
2023/10/16 01:39:47;;;;;;;7.55;3.10;;;;;;;4.30;100.00;101863.34;5053955;28;20132;-61
2023/10/16 01:41:57;;;;;;;6.43;3.15;;;;;;;4.25;100.00;101854.63;5055764;28;20036;-62
2023/10/16 01:44:22;;;;;;;8.27;3.72;;;;;;;4.20;100.00;101858.75;5056356;28;20040;-61
2023/10/16 01:46:48;;;;;;;5.32;3.28;;;;;;;4.15;100.00;101855.13;5052259;28;20819;-60
2023/10/16 01:49:13;;;;;;;7.20;3.53;;;;;;;4.12;100.00;101859.28;5054411;28;20098;-62
2023/10/16 01:51:43;;;;;;;5.90;3.10;;;;;;;4.11;100.00;101858.41;5066475;28;20465;-63
2023/10/16 01:54:14;;;;;;;4.68;3.50;;;;;;;4.09;100.00;101866.03;5053441;28;20105;-63
2023/10/16 01:56:41;;;;;;;4.57;3.30;;;;;;;4.06;100.00;101859.94;5051100;28;20416;-63
2023/10/16 01:59:07;;;;;;;6.55;3.65;;;;;;;4.06;100.00;101867.63;5049277;28;20036;-62
2023/10/16 02:01:32;;;;;;;7.22;4.05;;;;;;;4.10;100.00;101859.22;5057624;28;20044;-62
2023/10/16 02:03:57;;;;;;;6.38;3.35;;;;;;;4.09;100.00;101853.22;5055760;28;20032;-62
2023/10/16 02:06:25;;;;;;;5.95;3.35;;;;;;;4.10;100.00;101856.66;5061261;28;20172;-63
2023/10/16 02:08:51;;;;;;;5.85;3.35;;;;;;;4.15;100.00;101844.03;5061275;28;20024;-63
2023/10/16 02:11:16;;;;;;;9.45;3.90;;;;;;;4.17;100.00;101845.84;5058857;28;20650;-62
2023/10/16 02:13:42;;;;;;;7.35;4.10;;;;;;;4.12;100.00;101844.81;5057070;28;20071;-63
2023/10/16 02:16:18;;;;;;;7.43;3.65;;;;;;;4.12;100.00;101843.94;5061139;28;20040;-63
2023/10/16 02:18:46;;;;;;;4.70;3.30;;;;;;;4.14;100.00;101840.63;5060196;28;20535;-68
2023/10/16 02:21:13;;;;;;;8.88;3.67;;;;;;;4.11;100.00;101840.50;5063365;28;20032;-68
2023/10/16 02:23:39;;;;;;;5.43;3.30;;;;;;;4.11;100.00;101840.50;5060244;28;20150;-67
2023/10/16 02:26:09;;;;;;;6.38;3.30;;;;;;;4.09;100.00;101839.59;5058360;28;20044;-67
2023/10/16 02:28:36;;;;;;;8.45;3.08;;;;;;;4.09;100.00;101844.72;5058384;28;20047;-67
2023/10/16 02:31:10;;;;;;;3.65;2.58;;;;;;;4.12;100.00;101843.94;5040941;28;20032;-68
2023/10/16 02:33:36;;;;;;;4.97;3.10;;;;;;;4.13;100.00;101840.53;5044034;28;20039;-68
2023/10/16 02:36:02;;;;;;;5.50;2.60;;;;;;;4.15;100.00;101841.50;5059926;28;20040;-68
2023/10/16 02:38:28;;;;;;;6.50;2.45;;;;;;;4.16;100.00;101840.66;5059082;28;20380;-68
2023/10/16 02:41:00;;;;;;;5.07;2.55;;;;;;;4.15;100.00;101836.38;5039011;28;20044;-68
2023/10/16 02:43:27;;;;;;;5.13;2.83;;;;;;;4.16;100.00;101844.09;5057850;28;20052;-68
2023/10/16 02:45:52;;;;;;;8.88;3.22;;;;;;;4.17;100.00;101835.59;5054001;28;20483;-68
2023/10/16 02:48:21;;;;;;;7.05;2.40;;;;;;;4.21;100.00;101846.81;5056547;28;20058;-68
2023/10/16 02:50:54;;;;;;;7.00;3.10;;;;;;;4.19;100.00;101841.63;5058952;28;20063;-68
2023/10/16 02:53:23;;;;;;;5.93;3.33;;;;;;;4.19;100.00;101840.75;5056069;28;20739;-68
2023/10/16 02:55:58;;;;;;;7.80;2.95;;;;;;;4.18;100.00;101839.88;5058211;28;20037;-68
2023/10/16 02:58:30;;;;;;;4.88;2.67;;;;;;;4.16;100.00;101840.66;5058886;28;20757;-67
2023/10/16 03:00:57;;;;;;;5.88;2.63;;;;;;;4.14;100.00;101842.28;5054906;28;20044;-67
2023/10/16 03:03:26;;;;;;;4.70;2.75;;;;;;;4.14;100.00;101839.75;5057444;28;20044;-68
2023/10/16 03:05:56;;;;;;;4.57;2.28;;;;;;;4.10;100.00;101834.50;5055133;28;20395;-67
2023/10/16 03:08:29;;;;;;;5.15;2.78;;;;;;;4.08;100.00;101837.84;5057624;28;20040;-68
2023/10/16 03:10:59;;;;;;;6.97;2.67;;;;;;;4.07;100.00;101836.97;5052470;28;20094;-68
2023/10/16 03:13:25;;;;;;;4.88;2.05;;;;;;;4.06;100.00;101842.03;5052563;28;20046;-68
2023/10/16 03:15:59;;;;;;;4.97;2.58;;;;;;;4.05;100.00;101836.06;5055674;28;20036;-68
2023/10/16 03:18:25;;;;;;;4.50;2.30;;;;;;;4.04;100.00;101834.28;5058819;28;20040;-68
2023/10/16 03:23:58;;;;;;;2.85;1.80;;;;;;;4.03;100.00;101839.38;5030340;28;20590;-68
2023/10/16 03:26:29;;;;;;;4.57;2.70;;;;;;;4.04;100.00;101835.97;5060647;28;20362;-68
2023/10/16 03:28:56;;;;;;;5.50;2.30;;;;;;;3.99;100.00;101840.06;5047313;28;20555;-61
2023/10/16 03:31:23;;;;;;;6.60;2.65;;;;;;;3.95;100.00;101839.09;5046454;28;20455;-61
2023/10/16 03:33:49;;;;;;;8.07;2.88;;;;;;;3.92;100.00;101836.41;5061447;28;20499;-61
2023/10/16 03:36:15;;;;;;;4.97;2.53;;;;;;;3.89;100.00;101835.44;5045683;28;20043;-63
2023/10/16 03:38:41;;;;;;;5.20;2.30;;;;;;;3.87;100.00;101832.84;5036507;28;20033;-63
2023/10/16 03:41:40;;;;;;;6.32;2.40;;;;;;;3.84;100.00;101835.28;5053796;28;20037;-63
2023/10/16 03:44:19;;;;;;;5.15;1.80;;;;;;;3.82;100.00;101828.38;5052311;28;20058;-63
2023/10/16 03:46:45;;;;;;;6.88;2.67;;;;;;;3.76;100.00;101835.84;5055849;28;20032;-64
2023/10/16 03:49:14;;;;;;;9.05;2.70;;;;;;;3.67;100.00;101830.38;5055528;28;20109;-61
2023/10/16 03:51:39;;;;;;;4.43;2.45;;;;;;;3.60;100.00;101839.50;5055824;28;20024;-61
2023/10/16 03:54:05;;;;;;;6.90;3.30;;;;;;;3.52;100.00;101836.69;5058438;28;20043;-61
2023/10/16 03:56:30;;;;;;;8.50;2.92;;;;;;;3.46;100.00;101841.56;5056738;28;20040;-61
2023/10/16 03:58:57;;;;;;;5.20;3.03;;;;;;;3.39;100.00;101836.16;5054837;28;20041;-61
2023/10/16 04:01:24;;;;;;;5.50;2.80;;;;;;;3.33;100.00;101829.13;5057787;28;20032;-63
2023/10/16 04:03:56;;;;;;;7.85;3.47;;;;;;;3.32;100.00;101834.22;5048355;28;20505;-63
2023/10/16 04:06:22;;;;;;;10.77;4.32;;;;;;;3.32;100.00;101835.03;5036048;28;20165;-63
2023/10/16 04:08:49;;;;;;;8.95;4.88;;;;;;;3.33;100.00;101835.94;5049544;28;20061;-63
2023/10/16 04:11:18;;;;;;;11.80;5.22;;;;;;;3.34;100.00;101832.56;5054733;28;20036;-63
2023/10/16 04:13:50;;;;;;;7.20;4.43;;;;;;;3.36;100.00;101831.81;5046184;28;20032;-63
2023/10/16 04:16:42;;;;;;;12.27;5.15;;;;;;;3.37;100.00;101828.44;5052940;28;20575;-63
2023/10/16 04:21:50;;;;;;;8.63;5.43;;;;;;;3.30;100.00;101821.34;5048602;28;20392;-68
2023/10/16 04:26:57;;;;;;;9.40;5.55;;;;;;;3.33;100.00;101829.13;5053694;28;20870;-68
2023/10/16 04:29:28;;;;;;;13.20;5.82;;;;;;;3.40;100.00;101827.69;5058504;28;20104;-68
2023/10/16 04:50:37;;;;;;;66.70;15.15;;;;;;;3.76;100.00;101803.47;5057098;28;20071;-63
2023/10/16 04:53:11;;;;;;;112.13;15.57;;;;;;;3.80;100.00;101805.31;5059528;28;20136;-63
2023/10/16 05:06:37;;;;;;;141.40;17.13;;;;;;;4.04;100.00;101787.38;5032681;28;20037;-64
2023/10/16 05:20:13;;;;;;;86.60;14.57;;;;;;;4.00;100.00;101786.41;5055970;28;20040;-68
2023/10/16 06:14:37;;;;;;;37.58;10.90;;;;;;;4.26;100.00;101807.78;5031775;28;20048;-63
2023/10/16 06:17:23;;;;;;;32.33;12.10;;;;;;;4.24;100.00;101801.72;5054501;28;20043;-69
2023/10/16 06:19:51;;;;;;;42.70;12.45;;;;;;;4.13;100.00;101810.72;5054145;28;20032;-68
2023/10/16 06:22:16;;;;;;;30.38;11.45;;;;;;;4.20;100.00;101806.69;5055378;28;20059;-69
2023/10/16 06:24:44;;;;;;;50.00;12.45;;;;;;;4.24;100.00;101811.94;5057157;28;20433;-68
2023/10/16 06:27:11;;;;;;;32.22;12.45;;;;;;;4.26;100.00;101812.88;5042784;28;20109;-66
2023/10/16 06:29:41;;;;;;;37.47;14.02;;;;;;;4.32;100.00;101812.22;5023141;28;20085;-67
2023/10/16 06:32:18;;;;;;;49.33;12.60;;;;;;;4.33;100.00;101814.81;5033678;28;20118;-68
2023/10/16 06:35:03;;;;;;;26.10;11.25;;;;;;;4.47;100.00;101798.25;5031690;28;20045;-68
2023/10/16 06:37:31;;;;;;;35.88;11.52;;;;;;;4.60;100.00;101807.16;5029978;28;20064;-68
2023/10/16 06:40:16;;;;;;;36.45;11.90;;;;;;;4.58;100.00;101809.69;5053295;28;20037;-68
2023/10/16 06:42:45;;;;;;;53.50;11.93;;;;;;;4.51;100.00;101810.31;5063828;28;20135;-67
2023/10/16 06:45:19;;;;;;;35.13;11.13;;;;;;;4.57;100.00;101815.63;5055003;28;20098;-67
2023/10/16 06:47:48;;;;;;;41.27;11.00;;;;;;;4.49;100.00;101808.50;5059332;28;20024;-68
2023/10/16 06:52:52;;;;;;;43.00;11.07;;;;;;;4.45;100.00;101811.78;5062968;28;20127;-68
2023/10/16 06:55:18;;;;;;;36.33;10.63;;;;;;;4.45;100.00;101810.09;5060559;28;20036;-67
2023/10/16 06:57:44;;;;;;;44.92;12.15;;;;;;;4.45;100.00;101815.22;5057373;28;20822;-61
2023/10/16 07:00:22;;;;;;;72.97;12.95;;;;;;;4.45;100.00;101816.91;5068018;28;20470;-62
2023/10/16 07:02:54;;;;;;;36.58;10.32;;;;;;;4.50;100.00;101821.38;5054257;28;20135;-61
2023/10/16 07:05:22;;;;;;;41.33;11.05;;;;;;;4.56;100.00;101821.59;5057378;28;20032;-61
2023/10/16 07:07:59;;;;;;;44.33;11.98;;;;;;;4.51;100.00;101829.91;5044495;28;20054;-61
2023/10/16 07:10:24;;;;;;;44.13;12.90;;;;;;;4.63;100.00;101825.19;5045761;28;20123;-68
2023/10/16 07:12:58;;;;;;;28.52;12.27;;;;;;;4.64;100.00;101829.50;5058547;28;20945;-68
2023/10/16 07:15:31;;;;;;;34.40;12.55;;;;;;;4.66;100.00;101821.03;5064976;28;20036;-69
2023/10/16 07:18:04;;;;;;;26.73;11.13;;;;;;;4.75;100.00;101819.59;5062822;28;20111;-68
2023/10/16 07:20:30;;;;;;;27.73;12.52;;;;;;;4.78;100.00;101818.00;5056497;28;20044;-68
2023/10/16 07:22:59;;;;;;;23.80;11.90;;;;;;;4.86;100.00;101818.25;5056080;28;20150;-68
2023/10/16 07:28:12;;;;;;;21.80;11.25;;;;;;;5.04;100.00;101817.13;5057388;28;20476;-69
2023/10/16 07:30:42;;;;;;;29.10;12.27;;;;;;;4.99;100.00;101820.38;5065471;28;20032;-68
2023/10/16 07:33:14;;;;;;;19.23;10.98;;;;;;;5.09;100.00;101822.41;5062188;28;20032;-68
2023/10/16 07:35:46;;;;;;;23.65;12.85;;;;;;;5.17;100.00;101824.38;5052135;28;20049;-68
2023/10/16 07:38:13;;;;;;;28.00;13.70;;;;;;;5.24;100.00;101825.44;5059235;28;20040;-68
2023/10/16 07:40:38;;;;;;;27.30;14.30;;;;;;;5.35;100.00;101825.72;5064455;28;20143;-68
2023/10/16 07:43:06;;;;;;;24.75;13.20;;;;;;;5.30;100.00;101828.19;5056050;28;20088;-69
2023/10/16 07:45:32;;;;;;;19.17;11.93;;;;;;;5.36;100.00;101818.09;5062670;28;20033;-69
2023/10/16 07:48:07;;;;;;;21.70;11.02;;;;;;;5.44;100.00;101823.44;5058555;28;20043;-69
2023/10/16 07:50:41;;;;;;;19.27;10.85;;;;;;;5.56;100.00;101826.34;5061510;28;20044;-69
2023/10/16 07:53:08;;;;;;;18.63;9.73;;;;;;;5.74;100.00;101819.19;5043964;28;20044;-69
2023/10/16 07:55:40;;;;;;;15.85;10.07;;;;;;;5.86;100.00;101814.41;5060872;28;20044;-69
2023/10/16 07:58:15;;;;;;;14.10;9.48;;;;;;;5.90;100.00;101818.78;5054098;28;20516;-69
2023/10/16 08:00:42;;;;;;;;;;;;;;;6.12;100.00;101820.22;5055131;28;20028;-69
2023/10/16 08:03:13;;;;;;;14.02;7.53;;;;;;;6.07;100.00;101819.25;5063201;28;19920;-68
2023/10/16 08:05:47;;;;;;;13.30;7.97;;;;;;;5.98;100.00;101825.00;5066841;28;20043;-69
2023/10/16 08:08:13;;;;;;;16.40;8.93;;;;;;;5.93;100.00;101820.56;5051862;28;20029;-69
2023/10/16 08:10:41;;;;;;;11.90;8.82;;;;;;;5.86;100.00;101837.50;5062899;28;20419;-64
2023/10/16 08:13:13;;;;;;;14.30;7.13;;;;;;;6.00;100.00;101842.97;5069231;28;20040;-64
2023/10/16 08:15:49;;;;;;;12.73;8.23;;;;;;;6.18;100.00;101835.78;5062017;28;20403;-68
2023/10/16 08:18:15;;;;;;;11.25;8.18;;;;;;;6.13;100.00;101834.81;5061919;28;20510;-69
2023/10/16 08:23:38;;;;;;;11.50;8.02;;;;;;;5.93;100.00;101825.69;5065379;28;20051;-69
2023/10/16 08:26:50;;;;;;;13.23;8.00;;;;;;;6.03;100.00;101827.66;5058115;28;20071;-70
2023/10/16 08:28:50;;;;;;;12.50;8.02;;;;;;;6.09;100.00;101831.28;5051612;28;20837;-69
2023/10/16 08:31:24;;;;;;;19.73;9.02;;;;;;;6.21;100.00;101826.47;5054709;28;20040;-65
2023/10/16 08:33:51;;;;;;;12.45;7.55;;;;;;;6.11;100.00;101823.63;5067877;28;20036;-69
2023/10/16 08:36:18;;;;;;;15.38;8.10;;;;;;;6.24;100.00;101831.69;5053049;28;20805;-68
2023/10/16 08:38:51;;;;;;;14.15;7.68;;;;;;;6.39;100.00;101827.75;5057936;28;20661;-68
2023/10/16 08:41:23;;;;;;;13.10;8.15;;;;;;;6.47;100.00;101824.56;5038580;28;20140;-68
2023/10/16 08:44:03;;;;;;;13.23;7.45;;;;;;;6.43;100.00;101840.75;5064942;28;20495;-68
2023/10/16 08:46:44;;;;;;;14.23;8.48;;;;;;;6.49;100.00;101832.31;5053171;28;20418;-69
2023/10/16 08:49:11;;;;;;;12.38;8.18;;;;;;;6.45;100.00;101833.06;5039985;28;20701;-68
2023/10/16 08:51:36;;;;;;;17.75;8.75;;;;;;;6.49;100.00;101830.63;5063275;28;20048;-70
2023/10/16 08:54:03;;;;;;;14.63;9.50;;;;;;;6.63;100.00;101830.94;5070073;28;20032;-68
2023/10/16 08:56:29;;;;;;;17.05;8.73;;;;;;;6.64;100.00;101828.44;5058387;28;20033;-68
2023/10/16 08:58:55;;;;;;;17.02;8.80;;;;;;;6.75;100.00;101828.69;5063869;28;20396;-68
2023/10/16 09:01:23;;;;;;;12.73;8.00;;;;;;;6.78;100.00;101821.91;5063756;28;20531;-68
2023/10/16 09:04:06;;;;;;;15.98;8.55;;;;;;;6.86;99.97;101814.38;5062791;28;20032;-68
2023/10/16 09:06:36;;;;;;;12.15;7.57;;;;;;;6.91;100.00;101823.94;5059466;28;20036;-69
2023/10/16 09:09:11;;;;;;;10.77;7.22;;;;;;;7.09;99.75;101812.34;5052610;28;20028;-64
2023/10/16 09:11:39;;;;;;;9.95;6.90;;;;;;;7.23;99.49;101810.97;5059309;28;20548;-64
2023/10/16 09:14:07;;;;;;;11.65;8.15;;;;;;;7.39;99.06;101808.75;5066776;28;20128;-64
2023/10/16 09:16:34;;;;;;;10.82;6.38;;;;;;;7.54;97.90;101815.03;5061444;28;20040;-64
2023/10/16 09:19:06;;;;;;;9.68;6.28;;;;;;;7.65;96.78;101811.88;5044761;28;20491;-64
2023/10/16 09:21:38;;;;;;;11.55;5.65;;;;;;;7.69;95.35;101802.50;5063163;28;20098;-63
2023/10/16 09:24:05;;;;;;;12.63;5.45;;;;;;;7.78;94.76;101812.97;5054681;28;20051;-63
2023/10/16 09:26:44;;;;;;;10.02;6.28;;;;;;;7.77;93.49;101806.09;5064853;28;20154;-63
2023/10/16 09:29:20;;;;;;;11.88;6.32;;;;;;;7.74;94.28;101806.91;5058532;28;20048;-64
2023/10/16 09:31:46;;;;;;;12.68;6.55;;;;;;;7.84;93.59;101811.38;5059737;28;20048;-64
2023/10/16 09:34:17;;;;;;;11.73;6.85;;;;;;;7.98;92.98;101809.09;5059120;28;20033;-63
2023/10/16 09:37:13;;;;;;;12.00;7.20;;;;;;;8.04;92.08;101805.75;5059142;28;20090;-63
2023/10/16 09:39:34;;;;;;;11.18;6.95;;;;;;;8.06;91.99;101798.94;5069069;28;20110;-63
2023/10/16 09:42:05;;;;;;;13.57;7.22;;;;;;;8.10;92.12;101801.56;5055190;28;20131;-63
2023/10/16 09:44:38;;;;;;;11.10;7.82;;;;;;;8.14;91.64;101792.19;5060246;28;20040;-62
2023/10/16 09:47:49;;;;;;;13.70;8.00;;;;;;;8.17;92.35;101800.84;5062006;28;20048;-64
2023/10/16 09:49:50;;;;;;;14.32;7.28;;;;;;;8.33;91.68;101795.13;5038213;28;20045;-63
2023/10/16 09:52:20;;;;;;;18.55;9.25;;;;;;;8.35;91.14;101795.16;5068342;28;20147;-63
2023/10/16 09:54:48;;;;;;;18.23;8.10;;;;;;;8.46;90.45;101789.34;5046434;28;20498;-63
2023/10/16 09:57:18;;;;;;;13.43;8.13;;;;;;;8.50;90.54;101795.41;5066173;28;20044;-62
2023/10/16 09:59:43;;;;;;;14.13;8.45;;;;;;;8.59;88.85;101787.81;5047425;28;20032;-62
2023/10/16 10:02:18;;;;;;;16.15;8.82;;;;;;;8.73;89.80;101791.47;5062133;28;20059;-62
2023/10/16 10:04:59;;;;;;;14.80;9.32;;;;;;;8.85;89.72;101785.63;5054295;28;20836;-64
2023/10/16 10:07:37;;;;;;;17.73;9.32;;;;;;;9.01;89.25;101785.03;5056669;28;20036;-63
2023/10/16 10:12:53;;;;;;;20.65;9.93;;;;;;;8.87;88.51;101789.97;5053571;28;20103;-68
2023/10/16 10:15:33;;;;;;;22.00;10.57;;;;;;;8.81;88.71;101789.88;5057132;28;20602;-62
2023/10/16 10:18:30;;;;;;;19.38;10.20;;;;;;;8.63;89.81;101804.22;5053240;28;20425;-62
2023/10/16 10:20:46;;;;;;;20.85;10.90;;;;;;;8.65;89.87;101797.38;5055714;28;20040;-63
2023/10/16 10:23:15;;;;;;;18.55;9.95;;;;;;;8.83;90.09;101793.38;5058645;28;20044;-68
2023/10/16 10:25:41;;;;;;;25.95;10.82;;;;;;;9.02;nan;101782.47;5053654;28;20051;-68
2023/10/16 10:28:22;;;;;;;17.00;9.60;;;;;;;9.15;88.81;101773.19;5048369;28;20041;-68
2023/10/16 10:30:50;;;;;;;18.65;10.80;;;;;;;9.21;88.07;101768.09;5056746;28;20033;-61
2023/10/16 10:33:42;;;;;;;21.33;10.30;;;;;;;9.13;87.13;101772.31;5060950;28;20524;-61
2023/10/16 10:36:29;;;;;;;19.05;9.80;;;;;;;9.39;87.27;101760.59;5044905;28;20705;-68
2023/10/16 10:39:20;;;;;;;15.98;10.48;;;;;;;9.59;86.42;101754.00;5049862;28;20070;-63
2023/10/16 10:41:54;;;;;;;21.65;9.85;;;;;;;9.84;86.05;101743.94;5051703;28;20063;-63
2023/10/16 10:44:52;;;;;;;21.23;9.93;;;;;;;9.87;85.75;101751.72;5052911;28;20060;-64
2023/10/16 10:47:30;;;;;;;21.65;10.77;;;;;;;9.76;84.79;101736.13;5042143;28;20055;-64
2023/10/16 10:50:00;;;;;;;20.73;9.98;;;;;;;9.86;84.88;101742.22;5053163;28;20032;-64
2023/10/16 10:52:30;;;;;;;16.58;10.60;;;;;;;9.93;84.17;101734.56;5054247;28;20611;-64
2023/10/16 10:55:00;;;;;;;18.10;9.48;;;;;;;10.00;83.72;101736.34;5059047;28;20090;-64
2023/10/16 10:57:26;;;;;;;19.17;10.57;;;;;;;10.04;85.20;101740.69;5061190;28;20032;-64
2023/10/16 10:59:56;;;;;;;22.58;11.82;;;;;;;9.96;85.71;101749.22;5049738;28;20038;-63
2023/10/16 11:02:48;;;;;;;19.92;11.43;;;;;;;9.90;87.21;101757.78;5050149;28;20090;-64
2023/10/16 11:05:42;;;;;;;24.65;13.07;;;;;;;9.86;88.42;101756.00;5039257;28;20056;-63
2023/10/16 11:10:41;;;;;;;20.15;11.30;;;;;;;9.68;88.16;101751.50;5032264;28;20051;-60
2023/10/16 11:13:08;;;;;;;23.35;12.93;;;;;;;9.85;88.22;101737.94;5035771;28;20458;-60
2023/10/16 11:15:34;;;;;;;22.35;12.63;;;;;;;9.88;88.42;101741.38;5033632;28;20067;-61
2023/10/16 11:18:09;;;;;;;22.90;12.25;;;;;;;9.89;87.84;101742.25;5057184;28;20504;-62
2023/10/16 11:20:36;;;;;;;19.45;11.85;;;;;;;9.91;87.13;101731.09;5055571;28;20052;-62
2023/10/16 11:23:12;;;;;;;19.33;10.82;;;;;;;10.20;87.37;101729.66;5047635;28;20094;-63
2023/10/16 11:25:56;;;;;;;20.73;12.23;;;;;;;9.97;86.10;101712.22;5033302;28;20041;-63
2023/10/16 11:28:28;;;;;;;20.83;11.30;;;;;;;10.08;86.54;101719.22;5049675;28;20104;-64
2023/10/16 11:30:55;;;;;;;19.63;11.25;;;;;;;10.27;84.85;101689.19;5053354;28;20055;-62
2023/10/16 11:33:34;;;;;;;21.60;10.88;;;;;;;10.06;85.42;101695.06;5035771;28;20068;-63
2023/10/16 11:36:06;;;;;;;17.08;10.73;;;;;;;10.03;84.66;101692.47;5043493;28;20052;-61
2023/10/16 11:38:35;;;;;;;21.65;11.57;;;;;;;10.05;85.56;101701.09;5050854;28;20041;-61
2023/10/16 11:41:16;;;;;;;17.27;10.40;;;;;;;10.16;86.25;101702.06;5053161;28;20044;-62
2023/10/16 11:43:52;;;;;;;15.70;10.00;;;;;;;10.25;85.73;101683.16;5053376;28;20446;-63
2023/10/16 11:47:01;;;;;;;14.02;9.48;;;;;;;10.45;85.64;101688.47;5053811;28;20043;-64
2023/10/16 11:51:49;;;;;;;18.17;10.70;;;;;;;10.24;84.46;101684.88;5046018;28;20467;-63
2023/10/16 11:54:20;;;;;;;20.77;10.35;;;;;;;10.38;85.59;101685.00;5031251;28;20052;-61
2023/10/16 11:56:47;;;;;;;17.02;9.65;;;;;;;10.42;84.27;101663.47;5032794;28;20120;-61
2023/10/16 11:59:15;;;;;;;15.00;8.70;;;;;;;10.61;85.12;101675.66;5030909;28;20041;-68
2023/10/16 12:01:41;;;;;;;17.27;9.90;;;;;;;10.48;84.04;101658.34;5033172;28;20041;-68
2023/10/16 12:04:06;;;;;;;16.15;9.63;;;;;;;10.67;83.40;101655.03;5029512;28;20036;-68
2023/10/16 12:06:33;;;;;;;14.13;8.27;;;;;;;10.62;83.28;101648.09;5034110;28;20065;-68
2023/10/16 12:08:59;;;;;;;21.73;12.95;;;;;;;10.71;82.69;101642.97;5029903;28;20953;-68
2023/10/16 12:11:24;;;;;;;16.15;9.05;;;;;;;10.70;82.06;101626.59;5055887;28;20067;-68
2023/10/16 12:13:51;;;;;;;15.65;8.98;;;;;;;10.94;82.59;101636.19;5057880;28;20036;-68
2023/10/16 12:16:24;;;;;;;16.88;7.68;;;;;;;11.14;80.99;101611.25;5051912;28;20766;-68
2023/10/16 12:18:51;;;;;;;13.07;7.47;;;;;;;11.24;80.08;101601.78;5043548;28;20037;-68
2023/10/16 12:21:17;;;;;;;11.30;6.82;;;;;;;11.31;80.24;101609.56;5033923;28;20029;-68
2023/10/16 12:23:42;;;;;;;11.25;6.32;;;;;;;11.46;78.42;101582.84;5025958;28;20036;-68
2023/10/16 12:26:08;;;;;;;9.73;6.40;;;;;;;11.48;77.96;101578.56;5038059;28;20025;-68
2023/10/16 12:28:33;;;;;;;9.32;5.75;;;;;;;11.14;76.26;101563.78;5039408;28;20047;-70
2023/10/16 12:30:59;;;;;;;10.90;6.32;;;;;;;11.32;76.21;101556.94;5037813;28;20581;-68
2023/10/16 12:33:27;;;;;;;10.88;7.30;;;;;;;11.44;77.39;101575.94;5033935;28;20041;-67
2023/10/16 12:35:57;;;;;;;9.38;5.65;;;;;;;11.32;76.21;101556.94;5037157;28;20037;-68
2023/10/16 12:38:25;;;;;;;13.77;6.03;;;;;;;11.54;76.25;101563.03;5054908;28;20506;-67
2023/10/16 12:40:53;;;;;;;11.63;5.50;;;;;;;11.79;76.47;101562.16;5062598;28;20037;-68
2023/10/16 12:43:20;;;;;;;13.93;5.38;;;;;;;11.74;74.79;101534.53;5069710;28;20687;-68
2023/10/16 12:45:47;;;;;;;12.32;6.75;;;;;;;11.75;74.45;101521.56;5061514;28;20422;-63
2023/10/16 12:48:12;;;;;;;14.15;5.53;;;;;;;11.91;74.88;101537.97;5059766;28;20033;-63
2023/10/16 12:50:38;;;;;;;9.43;5.05;;;;;;;11.94;73.35;101506.00;5058386;28;20391;-63
2023/10/16 12:53:03;;;;;;;8.00;4.22;;;;;;;11.99;72.43;101492.16;5066802;28;20044;-62
2023/10/16 12:55:29;;;;;;;6.55;3.78;;;;;;;11.86;71.81;101482.72;5062384;28;20040;-62
2023/10/16 12:57:54;;;;;;;7.38;3.55;;;;;;;12.00;71.09;101475.75;5068023;28;20037;-62
2023/10/16 13:00:22;;;;;;;10.00;4.72;;;;;;;12.11;72.75;101510.28;5055611;28;20051;-62
2023/10/16 13:02:49;;;;;;;5.70;3.60;;;;;;;11.98;71.61;101493.06;5040281;28;20055;-62
2023/10/16 13:05:18;;;;;;;8.07;3.85;;;;;;;11.87;72.42;101498.25;5036135;28;20509;-62
2023/10/16 13:07:47;;;;;;;8.60;3.40;;;;;;;11.94;71.23;101465.41;5038867;28;20033;-63
2023/10/16 13:10:15;;;;;;;4.63;2.58;;;;;;;12.04;70.46;101463.66;5047299;28;20048;-63
2023/10/16 13:12:44;;;;;;;5.13;3.03;;;;;;;11.99;68.49;101424.78;5065507;28;20097;-63
2023/10/16 13:15:14;;;;;;;5.93;2.30;;;;;;;11.98;67.52;101412.72;5057317;28;20502;-63
2023/10/16 13:17:40;;;;;;;5.43;2.20;;;;;;;11.80;66.18;101386.88;5057429;28;20028;-62
2023/10/16 13:20:06;;;;;;;6.20;2.50;;;;;;;11.80;68.11;101429.19;5060308;28;20067;-62
2023/10/16 13:22:32;;;;;;;6.63;2.95;;;;;;;11.93;69.23;101468.03;5057437;28;20040;-63
2023/10/16 13:24:59;;;;;;;7.45;3.15;;;;;;;12.07;69.68;101461.06;5066521;28;20039;-63
2023/10/16 13:27:24;;;;;;;7.00;2.92;;;;;;;12.10;70.00;101474.00;5064599;28;20489;-63
2023/10/16 13:29:51;;;;;;;7.68;3.10;;;;;;;12.19;68.52;101438.56;5058103;28;20044;-62
2023/10/16 13:32:17;;;;;;;7.40;3.20;;;;;;;12.29;69.22;101449.72;5042247;28;20041;-63